Time;durP1;ratioP1;P1;durP2;ratioP2;P2;SDS_P1;SDS_P2;PMS_P1;PMS_P2;Temp;Humidity;BMP_temperature;BMP_pressure;BME280_temperature;BME280_humidity;BME280_pressure;Samples;Min_cycle;Max_cycle;Signal;HPM_P1;HPM_P2
2022/09/09 00:02:29;;;;;;;7.23;3.17;;;19.40;86.10;;;;;;6099341;23;20181;-96
2022/09/09 00:08:22;;;;;;;5.80;2.97;;;19.40;86.40;;;;;;6061975;23;20175;-95
2022/09/09 00:10:55;;;;;;;9.77;3.47;;;19.40;85.60;;;;;;6099681;23;20181;-96
2022/09/09 00:13:29;;;;;;;8.37;3.33;;;19.40;85.40;;;;;;6099548;23;20181;-96
2022/09/09 00:16:03;;;;;;;13.93;5.23;;;19.30;85.30;;;;;;6098407;23;20186;-95
2022/09/09 00:18:54;;;;;;;13.60;4.87;;;19.30;85.80;;;;;;6099773;23;20173;-96
2022/09/09 00:21:29;;;;;;;10.87;3.63;;;19.30;86.00;;;;;;6096950;23;20186;-95
2022/09/09 00:24:03;;;;;;;8.50;3.67;;;19.30;85.60;;;;;;6099098;23;20224;-95
2022/09/09 00:26:39;;;;;;;13.53;4.87;;;19.30;85.80;;;;;;6097620;23;20203;-95
2022/09/09 00:29:24;;;;;;;6.43;2.50;;;19.30;85.90;;;;;;6098479;23;20182;-94
2022/09/09 00:31:59;;;;;;;17.90;5.03;;;19.20;86.30;;;;;;6099050;23;20189;-95
2022/09/09 00:34:29;;;;;;;7.17;2.90;;;19.20;85.80;;;;;;6099684;23;20252;-95
2022/09/09 00:36:58;;;;;;;9.60;3.30;;;19.20;85.80;;;;;;6100020;23;20245;-95
2022/09/09 00:39:32;;;;;;;6.73;2.93;;;19.20;86.50;;;;;;6100472;23;20174;-95
2022/09/09 00:42:24;;;;;;;8.23;2.53;;;19.20;85.90;;;;;;6099971;23;20178;-96
2022/09/09 00:45:00;;;;;;;7.20;2.43;;;19.30;86.20;;;;;;6089883;23;20182;-95
2022/09/09 00:47:51;;;;;;;7.50;2.97;;;19.20;85.30;;;;;;6100160;23;20176;-95
2022/09/09 00:50:40;;;;;;;4.90;2.43;;;19.20;85.50;;;;;;6096486;23;20661;-96
2022/09/09 00:53:32;;;;;;;5.70;2.30;;;19.20;85.60;;;;;;6103338;23;20184;-95
2022/09/09 00:56:13;;;;;;;8.97;2.90;;;19.20;85.70;;;;;;6104227;23;20189;-94
2022/09/09 00:58:58;;;;;;;6.17;2.47;;;19.20;85.80;;;;;;6103022;23;20626;-95
2022/09/09 01:01:31;;;;;;;6.77;2.73;;;19.10;85.70;;;;;;6102650;23;20192;-95
2022/09/09 01:04:34;;;;;;;11.90;3.23;;;19.10;85.50;;;;;;6101783;23;20185;-96
2022/09/09 01:10:30;;;;;;;9.63;3.63;;;19.10;85.80;;;;;;6089266;23;20180;-95
2022/09/09 01:13:01;;;;;;;10.93;3.23;;;19.10;85.90;;;;;;6111258;23;20187;-95
2022/09/09 01:15:32;;;;;;;8.93;3.07;;;19.10;85.80;;;;;;6116565;23;20184;-96
2022/09/09 01:18:05;;;;;;;11.07;3.53;;;19.10;85.80;;;;;;6110541;23;20183;-95
2022/09/09 01:20:45;;;;;;;8.70;3.43;;;19.10;86.00;;;;;;6106552;23;20175;-95
2022/09/09 01:23:52;;;;;;;8.17;2.87;;;19.10;86.20;;;;;;6104465;23;20179;-95
2022/09/09 01:26:33;;;;;;;13.70;4.33;;;19.10;86.70;;;;;;6104902;23;20640;-96
2022/09/09 01:29:01;;;;;;;8.60;2.70;;;19.10;86.50;;;;;;6104860;23;20181;-96
2022/09/09 01:31:36;;;;;;;11.90;3.67;;;19.10;86.00;;;;;;6109826;23;20180;-95
2022/09/09 01:34:03;;;;;;;15.87;3.93;;;19.10;86.40;;;;;;6122074;23;20197;-95
2022/09/09 01:39:42;;;;;;;8.30;2.80;;;19.00;86.10;;;;;;6108804;23;20168;-96
2022/09/09 01:42:17;;;;;;;6.60;2.20;;;19.00;86.10;;;;;;6104087;23;20173;-96
2022/09/09 01:44:47;;;;;;;5.30;1.70;;;19.00;86.00;;;;;;6103015;23;20213;-95
2022/09/09 01:47:17;;;;;;;8.13;2.53;;;19.00;85.70;;;;;;6103380;23;20207;-95
2022/09/09 01:49:46;;;;;;;5.47;2.20;;;19.00;85.70;;;;;;6102499;23;20178;-96
2022/09/09 01:52:17;;;;;;;6.50;2.00;;;19.00;85.90;;;;;;6102442;23;20183;-96
2022/09/09 01:54:46;;;;;;;9.77;3.07;;;19.00;85.80;;;;;;6101980;23;20176;-95
2022/09/09 01:57:23;;;;;;;4.30;2.07;;;19.10;85.90;;;;;;6101534;23;20176;-96
2022/09/09 02:00:03;;;;;;;12.00;3.53;;;19.00;86.10;;;;;;6101395;23;20195;-96
2022/09/09 02:02:37;;;;;;;5.97;2.00;;;19.00;86.20;;;;;;6101692;23;20615;-96
2022/09/09 02:05:18;;;;;;;6.77;2.47;;;19.00;86.10;;;;;;6101520;23;20297;-95
2022/09/09 02:07:50;;;;;;;8.27;2.60;;;19.00;86.30;;;;;;6075796;23;20186;-95
2022/09/09 02:10:27;;;;;;;9.93;2.93;;;19.00;85.80;;;;;;6102465;23;20218;-96
2022/09/09 02:13:05;;;;;;;6.87;2.43;;;19.00;86.10;;;;;;6101527;23;20244;-95
2022/09/09 02:15:43;;;;;;;6.60;2.27;;;19.00;86.40;;;;;;6100496;23;20186;-95
2022/09/09 02:18:24;;;;;;;13.40;3.77;;;19.00;86.80;;;;;;6101373;23;20177;-96
2022/09/09 02:20:52;;;;;;;7.07;2.33;;;18.80;86.40;;;;;;6102007;23;20177;-95
2022/09/09 02:23:26;;;;;;;8.33;2.57;;;18.90;86.20;;;;;;6100856;23;20177;-96
2022/09/09 02:25:58;;;;;;;8.83;2.33;;;18.90;86.70;;;;;;6101741;23;20193;-95
2022/09/09 02:28:33;;;;;;;11.20;3.63;;;18.90;86.70;;;;;;6100404;23;20264;-96
2022/09/09 02:31:12;;;;;;;19.00;4.80;;;18.90;86.80;;;;;;6100648;23;20204;-94
2022/09/09 02:33:44;;;;;;;13.17;3.07;;;18.90;87.20;;;;;;6101565;23;20171;-95
2022/09/09 02:36:29;;;;;;;15.87;4.00;;;18.90;86.70;;;;;;6100895;23;20182;-95
2022/09/09 02:39:00;;;;;;;8.40;2.73;;;18.90;87.10;;;;;;6101167;23;20189;-92
2022/09/09 02:42:00;;;;;;;7.10;1.80;;;18.90;87.60;;;;;;6100397;23;20178;-95
2022/09/09 02:45:00;;;;;;;7.97;2.57;;;18.90;87.40;;;;;;6101337;23;20181;-95
2022/09/09 02:47:36;;;;;;;11.33;3.60;;;18.90;86.90;;;;;;6098021;23;20233;-96
2022/09/09 02:50:15;;;;;;;6.60;2.50;;;18.90;86.70;;;;;;6100862;23;20181;-95
2022/09/09 02:52:51;;;;;;;6.43;2.07;;;18.90;87.00;;;;;;6100765;23;20183;-96
2022/09/09 02:55:27;;;;;;;12.33;3.47;;;19.00;86.80;;;;;;6101434;23;20176;-95
2022/09/09 02:58:21;;;;;;;11.00;3.17;;;19.00;86.80;;;;;;6099986;23;20185;-96
2022/09/09 03:00:54;;;;;;;12.30;3.20;;;18.90;86.70;;;;;;6060348;23;20204;-96
2022/09/09 03:03:21;;;;;;;14.03;3.67;;;19.00;86.80;;;;;;6107551;23;20176;-94
2022/09/09 03:08:49;;;;;;;8.80;2.37;;;19.00;86.80;;;;;;6093575;23;20178;-96
2022/09/09 03:11:17;;;;;;;20.73;5.93;;;19.00;86.80;;;;;;6111837;23;20178;-96
2022/09/09 03:13:44;;;;;;;13.50;3.90;;;19.00;86.70;;;;;;6110412;23;20166;-95
2022/09/09 03:16:48;;;;;;;11.23;3.30;;;19.00;86.70;;;;;;6104548;23;20184;-96
2022/09/09 03:19:15;;;;;;;11.13;3.03;;;19.00;87.10;;;;;;6101981;23;20672;-96
2022/09/09 03:21:42;;;;;;;9.70;2.90;;;19.00;86.80;;;;;;6101836;23;20228;-96
2022/09/09 03:24:17;;;;;;;6.50;2.30;;;19.00;86.90;;;;;;6101589;23;20175;-96
2022/09/09 03:26:45;;;;;;;9.57;2.87;;;19.00;87.20;;;;;;6101707;23;20221;-96
2022/09/09 03:29:13;;;;;;;6.53;2.63;;;19.00;86.80;;;;;;6102674;23;20667;-96
2022/09/09 03:31:42;;;;;;;12.00;3.33;;;19.00;86.80;;;;;;6102749;23;20304;-96
2022/09/09 03:34:11;;;;;;;8.77;2.70;;;19.00;86.90;;;;;;6103880;23;20178;-96
2022/09/09 03:36:40;;;;;;;10.00;2.73;;;19.00;86.90;;;;;;6103211;23;20182;-96
2022/09/09 03:39:24;;;;;;;10.27;2.77;;;19.00;86.80;;;;;;6102539;23;20187;-96
2022/09/09 03:41:51;;;;;;;11.53;3.00;;;19.00;87.40;;;;;;6101794;23;20180;-96
2022/09/09 03:44:35;;;;;;;12.23;2.87;;;19.00;86.90;;;;;;6100435;23;20178;-95
2022/09/09 03:47:11;;;;;;;8.30;2.90;;;19.10;87.70;;;;;;6100822;23;20205;-93
2022/09/09 03:50:00;;;;;;;8.70;3.13;;;19.00;87.60;;;;;;6101612;23;20178;-95
2022/09/09 03:52:33;;;;;;;9.07;2.80;;;19.00;88.00;;;;;;6101615;23;20174;-96
2022/09/09 03:58:22;;;;;;;19.33;5.60;;;19.00;88.00;;;;;;6117430;23;20192;-93
2022/09/09 04:03:58;;;;;;;8.73;2.40;;;19.00;88.20;;;;;;6108588;23;20186;-95
2022/09/09 04:07:11;;;;;;;11.23;2.77;;;19.00;88.20;;;;;;6106110;23;20226;-95
2022/09/09 04:09:39;;;;;;;15.90;4.37;;;19.00;88.40;;;;;;6095759;23;20188;-96
2022/09/09 04:12:11;;;;;;;8.93;2.47;;;19.00;87.80;;;;;;6105321;23;20268;-96
2022/09/09 04:14:39;;;;;;;8.83;2.73;;;19.00;88.30;;;;;;6106111;23;20177;-95
2022/09/09 04:24:24;;;;;;;8.83;2.53;;;19.00;90.00;;;;;;5998712;23;20175;-95
2022/09/09 04:26:52;;;;;;;10.00;3.40;;;19.00;89.10;;;;;;6019551;23;20201;-93
2022/09/09 04:29:25;;;;;;;11.20;3.03;;;18.90;88.40;;;;;;6088653;23;20184;-95
2022/09/09 04:31:55;;;;;;;9.33;2.90;;;18.90;89.00;;;;;;6105638;23;20175;-96
2022/09/09 04:34:49;;;;;;;14.03;4.17;;;18.90;89.00;;;;;;6109420;23;20219;-96
2022/09/09 04:37:33;;;;;;;15.43;4.50;;;18.80;89.80;;;;;;6099799;23;20260;-95
2022/09/09 04:40:19;;;;;;;8.13;2.40;;;18.80;89.80;;;;;;6105846;23;20186;-95
2022/09/09 04:42:47;;;;;;;11.07;2.70;;;18.80;89.40;;;;;;6079471;23;20496;-94
2022/09/09 04:45:15;;;;;;;9.43;3.07;;;18.70;89.20;;;;;;6103423;23;20210;-95
2022/09/09 04:47:44;;;;;;;8.47;2.77;;;18.70;89.70;;;;;;6101003;23;20634;-94
2022/09/09 04:50:15;;;;;;;14.00;3.77;;;18.70;90.00;;;;;;6099481;23;20179;-94
2022/09/09 04:52:44;;;;;;;13.30;3.93;;;18.70;90.20;;;;;;6096892;23;20199;-95
2022/09/09 04:55:16;;;;;;;11.60;3.03;;;18.70;90.20;;;;;;6099514;23;20179;-94
2022/09/09 04:57:43;;;;;;;13.77;3.83;;;18.60;90.30;;;;;;6100613;23;20770;-96
2022/09/09 05:00:14;;;;;;;10.43;2.77;;;18.60;90.20;;;;;;6100457;23;20196;-96
2022/09/09 05:02:43;;;;;;;10.27;3.53;;;18.60;90.40;;;;;;6099985;23;20228;-94
2022/09/09 05:05:12;;;;;;;14.13;4.13;;;18.60;90.20;;;;;;6099807;23;20206;-95
2022/09/09 05:07:43;;;;;;;12.43;3.50;;;18.60;90.40;;;;;;6099896;23;20732;-95
2022/09/09 05:10:13;;;;;;;19.13;4.50;;;18.60;90.50;;;;;;6100507;23;20177;-93
2022/09/09 05:12:43;;;;;;;14.77;4.83;;;18.60;90.40;;;;;;6098763;23;20189;-93
2022/09/09 05:15:16;;;;;;;10.73;2.90;;;18.60;90.40;;;;;;6100041;23;20181;-94
2022/09/09 05:17:43;;;;;;;13.07;3.50;;;18.60;90.50;;;;;;6098601;23;20178;-93
2022/09/09 05:20:12;;;;;;;13.73;4.20;;;18.60;90.30;;;;;;6100359;23;20176;-93
2022/09/09 05:22:41;;;;;;;7.80;2.00;;;18.60;90.50;;;;;;6099749;23;20435;-95
2022/09/09 05:25:10;;;;;;;10.87;3.10;;;18.60;90.50;;;;;;6099679;23;20223;-93
2022/09/09 05:27:39;;;;;;;10.60;3.00;;;18.60;90.70;;;;;;6101292;23;20251;-95
2022/09/09 05:30:10;;;;;;;9.67;2.83;;;18.50;90.70;;;;;;6100697;23;20176;-93
2022/09/09 05:32:37;;;;;;;13.97;4.07;;;18.60;91.20;;;;;;6099174;23;20174;-93
2022/09/09 05:35:06;;;;;;;7.97;2.67;;;18.60;90.60;;;;;;6098817;23;20180;-95
2022/09/09 05:37:36;;;;;;;13.00;3.53;;;18.50;90.80;;;;;;6100161;23;20175;-96
2022/09/09 05:40:04;;;;;;;10.03;2.53;;;18.50;90.90;;;;;;6100314;23;20194;-94
2022/09/09 05:42:32;;;;;;;11.77;3.03;;;18.50;90.80;;;;;;6101718;23;20177;-94
2022/09/09 05:45:07;;;;;;;7.23;2.80;;;18.50;90.90;;;;;;6099600;23;20231;-94
2022/09/09 05:47:37;;;;;;;7.23;2.47;;;18.50;91.10;;;;;;6102323;23;20295;-96
2022/09/09 05:50:05;;;;;;;10.77;3.00;;;18.50;91.10;;;;;;6102199;23;20512;-94
2022/09/09 05:52:33;;;;;;;10.70;3.17;;;18.50;91.00;;;;;;6100327;23;20198;-94
2022/09/09 05:55:01;;;;;;;10.97;2.70;;;18.50;91.20;;;;;;6101217;23;20246;-96
2022/09/09 05:57:39;;;;;;;7.87;2.77;;;18.50;91.10;;;;;;6103325;23;20232;-96
2022/09/09 06:00:14;;;;;;;10.97;3.13;;;18.60;91.30;;;;;;6105273;23;20195;-96
2022/09/09 06:02:54;;;;;;;9.13;2.83;;;18.50;91.20;;;;;;6105277;23;20179;-94
2022/09/09 06:05:22;;;;;;;10.47;2.40;;;18.50;91.30;;;;;;6108584;23;20175;-96
2022/09/09 06:07:54;;;;;;;9.13;2.67;;;18.60;91.10;;;;;;6105439;23;20199;-96
2022/09/09 06:10:28;;;;;;;10.87;3.23;;;18.50;91.20;;;;;;6105684;23;20176;-96
2022/09/09 06:12:56;;;;;;;11.73;3.50;;;18.50;91.40;;;;;;6103636;23;20175;-93
2022/09/09 06:18:06;;;;;;;11.03;3.63;;;18.50;91.30;;;;;;6101619;23;20229;-96
2022/09/09 06:20:36;;;;;;;8.37;2.70;;;18.60;91.50;;;;;;6102615;23;20178;-96
2022/09/09 06:23:06;;;;;;;10.10;3.13;;;18.60;91.20;;;;;;6103914;23;20184;-96
2022/09/09 06:25:34;;;;;;;6.30;2.67;;;18.60;91.50;;;;;;6102840;23;20171;-94
2022/09/09 06:28:04;;;;;;;7.27;2.50;;;18.60;91.50;;;;;;6103665;23;20193;-95
2022/09/09 06:33:07;;;;;;;8.87;2.53;;;18.60;91.50;;;;;;6077816;23;20303;-96
2022/09/09 06:35:34;;;;;;;6.27;2.50;;;18.60;91.50;;;;;;6101412;23;20197;-93
2022/09/09 06:38:06;;;;;;;9.80;2.90;;;18.60;91.50;;;;;;6101882;23;20234;-96
2022/09/09 06:40:33;;;;;;;9.73;3.23;;;18.60;91.70;;;;;;6107889;23;20169;-96
2022/09/09 06:43:02;;;;;;;10.97;3.60;;;18.70;91.70;;;;;;6113064;23;20177;-93
2022/09/09 06:45:40;;;;;;;11.57;2.73;;;18.70;92.00;;;;;;6108079;23;20199;-96
2022/09/09 06:48:10;;;;;;;10.00;2.90;;;18.70;92.00;;;;;;6105024;23;20212;-95
2022/09/09 06:50:50;;;;;;;6.00;2.03;;;18.70;91.70;;;;;;6107414;23;20174;-96
2022/09/09 06:53:21;;;;;;;10.93;2.93;;;18.70;91.80;;;;;;6104457;23;20187;-96
2022/09/09 06:55:51;;;;;;;6.87;2.47;;;18.70;91.70;;;;;;6103980;23;20198;-96
2022/09/09 06:58:18;;;;;;;10.97;3.17;;;18.70;91.70;;;;;;6106154;23;20203;-96
2022/09/09 07:00:45;;;;;;;12.20;3.47;;;18.70;91.60;;;;;;6105303;23;20180;-96
2022/09/09 07:03:20;;;;;;;19.20;5.37;;;18.70;91.60;;;;;;6116208;23;20179;-94
2022/09/09 07:05:59;;;;;;;9.53;2.87;;;18.70;91.90;;;;;;6120990;23;20159;-94
2022/09/09 07:08:28;;;;;;;7.83;2.20;;;18.70;91.80;;;;;;6113975;23;20204;-92
2022/09/09 07:11:04;;;;;;;9.57;2.30;;;18.70;91.60;;;;;;6111558;23;20178;-95
2022/09/09 07:13:33;;;;;;;13.00;3.70;;;18.70;92.00;;;;;;6106105;23;20184;-93
2022/09/09 07:16:06;;;;;;;10.40;2.83;;;18.70;92.00;;;;;;6101263;23;20170;-94
2022/09/09 07:18:42;;;;;;;10.90;3.53;;;18.70;92.20;;;;;;6101009;23;20254;-94
2022/09/09 07:21:14;;;;;;;7.43;2.73;;;18.60;91.90;;;;;;6100222;23;20488;-93
2022/09/09 07:23:44;;;;;;;8.00;3.00;;;18.70;91.80;;;;;;6099898;23;20715;-93
2022/09/09 07:26:14;;;;;;;7.53;2.53;;;18.70;91.80;;;;;;6099843;23;20183;-94
2022/09/09 07:28:43;;;;;;;11.43;3.67;;;18.70;91.90;;;;;;6100130;23;20192;-93
2022/09/09 07:31:16;;;;;;;16.07;4.90;;;18.60;92.00;;;;;;6100676;23;20186;-92
2022/09/09 07:33:55;;;;;;;15.40;4.53;;;18.60;91.90;;;;;;6100846;23;20213;-94
2022/09/09 07:36:24;;;;;;;13.87;4.00;;;18.70;92.10;;;;;;6101212;23;20605;-92
2022/09/09 07:38:53;;;;;;;15.37;4.80;;;18.60;91.90;;;;;;6099439;23;20523;-93
2022/09/09 07:41:22;;;;;;;16.77;5.20;;;18.60;91.90;;;;;;6096535;23;20177;-93
2022/09/09 07:43:54;;;;;;;11.50;3.77;;;18.60;91.90;;;;;;6096665;23;20177;-92
2022/09/09 07:46:26;;;;;;;11.93;3.07;;;18.70;92.10;;;;;;6099254;23;20178;-95
2022/09/09 07:48:56;;;;;;;8.13;3.00;;;18.70;92.20;;;;;;6100214;23;20201;-94
2022/09/09 07:51:26;;;;;;;13.90;4.07;;;18.60;92.00;;;;;;6098475;23;20274;-93
2022/09/09 07:53:55;;;;;;;9.90;3.10;;;18.70;92.20;;;;;;6097398;23;20173;-94
2022/09/09 07:56:23;;;;;;;9.10;2.97;;;18.70;92.20;;;;;;6099263;23;20174;-94
2022/09/09 07:58:53;;;;;;;7.50;2.70;;;18.70;92.30;;;;;;6099224;23;20224;-94
2022/09/09 08:01:23;;;;;;;13.13;4.40;;;18.70;92.30;;;;;;6099049;23;20181;-93
2022/09/09 08:03:59;;;;;;;9.70;3.40;;;18.70;92.20;;;;;;6099199;23;20551;-94
2022/09/09 08:06:26;;;;;;;12.60;3.63;;;18.80;92.30;;;;;;6099900;23;20254;-93
2022/09/09 08:08:55;;;;;;;11.27;3.20;;;18.70;92.20;;;;;;6097716;23;20199;-96
2022/09/09 08:11:30;;;;;;;8.93;3.23;;;18.70;92.40;;;;;;6098132;23;20200;-94
2022/09/09 08:13:57;;;;;;;10.90;2.63;;;18.70;92.50;;;;;;6099372;23;20177;-95
2022/09/09 08:16:26;;;;;;;13.40;3.60;;;18.70;92.40;;;;;;6096559;23;20601;-94
2022/09/09 08:18:58;;;;;;;11.97;3.57;;;18.80;92.60;;;;;;6096889;23;20181;-95
2022/09/09 08:21:33;;;;;;;10.97;3.37;;;18.80;92.50;;;;;;6099609;23;20172;-94
2022/09/09 08:24:04;;;;;;;7.50;2.43;;;18.80;92.60;;;;;;6099245;23;20167;-93
2022/09/09 08:26:36;;;;;;;7.67;2.87;;;18.90;92.70;;;;;;6098737;23;20181;-95
2022/09/09 08:29:07;;;;;;;9.07;3.23;;;18.90;92.80;;;;;;6098270;23;20260;-96
2022/09/09 08:31:36;;;;;;;12.27;3.43;;;18.90;92.80;;;;;;6098008;23;20257;-96
2022/09/09 08:34:08;;;;;;;13.90;3.70;;;18.90;92.90;;;;;;6099467;23;20224;-95
2022/09/09 08:36:38;;;;;;;12.43;3.77;;;19.00;93.00;;;;;;6099353;23;20175;-96
2022/09/09 08:39:08;;;;;;;6.50;2.57;;;19.00;92.80;;;;;;6098854;23;20190;-95
2022/09/09 08:42:09;;;;;;;10.10;3.10;;;19.00;92.90;;;;;;6099005;23;20182;-95
2022/09/09 08:44:50;;;;;;;9.83;3.40;;;19.10;93.30;;;;;;6098494;23;20216;-93
2022/09/09 08:47:28;;;;;;;8.03;2.47;;;19.20;93.40;;;;;;6099180;23;20176;-94
2022/09/09 08:50:21;;;;;;;7.27;3.10;;;19.20;93.40;;;;;;6098772;23;20204;-95
2022/09/09 08:52:58;;;;;;;6.83;2.93;;;19.30;93.60;;;;;;6099354;23;20235;-95
2022/09/09 08:55:36;;;;;;;15.67;4.97;;;19.40;93.50;;;;;;6096947;23;20177;-95
2022/09/09 08:58:14;;;;;;;5.60;2.30;;;19.50;93.60;;;;;;6097669;23;20204;-95
2022/09/09 09:00:59;;;;;;;8.70;3.17;;;19.50;93.60;;;;;;6096663;23;20237;-96
2022/09/09 09:03:35;;;;;;;12.10;3.30;;;19.60;93.40;;;;;;6095452;23;20183;-92
2022/09/09 09:06:19;;;;;;;8.73;2.53;;;19.70;93.50;;;;;;6097141;23;20616;-92
2022/09/09 09:09:00;;;;;;;18.67;5.60;;;19.80;93.60;;;;;;6095659;23;20215;-94
2022/09/09 09:11:27;;;;;;;12.43;3.97;;;19.90;93.80;;;;;;6096102;23;20181;-95
2022/09/09 09:14:03;;;;;;;14.27;4.20;;;20.10;93.30;;;;;;6092560;23;20174;-93
2022/09/09 09:16:36;;;;;;;11.40;3.93;;;20.20;93.30;;;;;;6096253;23;20169;-95
2022/09/09 09:19:06;;;;;;;14.13;4.43;;;20.30;93.00;;;;;;6096896;23;20178;-95
2022/09/09 09:21:41;;;;;;;11.63;4.03;;;20.40;92.80;;;;;;6095343;23;20186;-93
2022/09/09 09:24:19;;;;;;;6.43;3.00;;;20.40;92.30;;;;;;6096190;23;20273;-95
2022/09/09 09:26:47;;;;;;;9.17;3.23;;;20.50;91.80;;;;;;6095080;23;20462;-94
2022/09/09 09:29:16;;;;;;;15.73;4.97;;;20.50;92.10;;;;;;6095776;23;20225;-95
2022/09/09 09:31:47;;;;;;;9.17;2.73;;;20.60;92.20;;;;;;6097913;23;20179;-92
2022/09/09 09:34:15;;;;;;;16.67;4.93;;;20.60;92.20;;;;;;6095033;23;20179;-95
2022/09/09 09:36:47;;;;;;;15.67;5.17;;;20.70;92.40;;;;;;6095508;23;20182;-95
2022/09/09 09:39:25;;;;;;;16.67;5.27;;;20.80;92.60;;;;;;6096047;23;20199;-95
2022/09/09 09:41:52;;;;;;;9.97;3.47;;;20.90;91.90;;;;;;6094057;23;20193;-95
2022/09/09 09:44:26;;;;;;;7.17;2.83;;;21.00;91.90;;;;;;6101982;23;20215;-91
2022/09/09 09:47:07;;;;;;;8.70;3.00;;;21.10;91.30;;;;;;6107025;23;20184;-92
2022/09/09 09:49:36;;;;;;;11.37;3.40;;;21.20;90.80;;;;;;6101979;23;20206;-95
2022/09/09 09:52:22;;;;;;;6.27;2.33;;;21.20;90.80;;;;;;6101434;23;20182;-94
2022/09/09 09:54:52;;;;;;;7.90;2.60;;;21.30;91.40;;;;;;6099214;23;20204;-96
2022/09/09 09:57:26;;;;;;;8.80;2.80;;;21.40;90.70;;;;;;6073385;23;20179;-95
2022/09/09 10:00:06;;;;;;;7.57;3.00;;;21.40;90.50;;;;;;6098438;23;20239;-93
2022/09/09 10:02:40;;;;;;;9.03;3.23;;;21.50;90.20;;;;;;6099439;23;20202;-92
2022/09/09 10:05:16;;;;;;;10.63;3.23;;;21.50;90.20;;;;;;6098465;23;20174;-95
2022/09/09 10:08:01;;;;;;;7.23;2.50;;;21.50;90.00;;;;;;6099842;23;20181;-95
2022/09/09 10:10:42;;;;;;;13.13;3.77;;;21.60;89.60;;;;;;6099250;23;20233;-95
2022/09/09 10:13:21;;;;;;;10.43;3.53;;;21.70;89.60;;;;;;6098386;23;20262;-93
2022/09/09 10:15:58;;;;;;;5.73;2.33;;;21.70;89.10;;;;;;6099061;23;20187;-96
2022/09/09 10:18:44;;;;;;;10.77;3.73;;;21.80;89.80;;;;;;6098815;23;20271;-94
2022/09/09 10:21:24;;;;;;;7.23;2.63;;;21.90;88.70;;;;;;6099833;23;20198;-96
2022/09/09 10:24:25;;;;;;;6.50;2.53;;;21.90;88.50;;;;;;6097846;23;20201;-96
2022/09/09 10:26:59;;;;;;;9.87;3.33;;;21.90;88.20;;;;;;6099064;23;20625;-94
2022/09/09 10:29:57;;;;;;;14.10;4.43;;;22.00;87.90;;;;;;6100207;23;20655;-96
2022/09/09 10:32:38;;;;;;;12.43;3.43;;;22.00;88.30;;;;;;6100048;23;20187;-94
2022/09/09 10:35:25;;;;;;;8.37;3.00;;;21.90;87.70;;;;;;6101049;23;20175;-94
2022/09/09 10:38:21;;;;;;;7.00;2.43;;;21.90;87.20;;;;;;6098973;23;20179;-96
2022/09/09 10:41:17;;;;;;;10.73;3.60;;;21.90;87.30;;;;;;6101760;23;20234;-95
2022/09/09 10:44:07;;;;;;;12.33;4.13;;;21.80;87.10;;;;;;6105835;23;20631;-95
2022/09/09 10:46:49;;;;;;;10.03;3.53;;;21.70;87.60;;;;;;6104861;23;20616;-96
2022/09/09 10:49:27;;;;;;;9.23;3.17;;;21.70;87.90;;;;;;6103613;23;20202;-95
2022/09/09 10:52:05;;;;;;;9.80;2.93;;;21.60;87.90;;;;;;6104247;23;20234;-95
2022/09/09 10:54:45;;;;;;;16.53;4.43;;;21.50;87.80;;;;;;6074803;23;20189;-95
2022/09/09 10:57:22;;;;;;;9.40;3.20;;;21.40;88.40;;;;;;6097306;23;20240;-94
2022/09/09 10:59:56;;;;;;;12.10;3.73;;;21.30;88.10;;;;;;6099824;23;20217;-94
2022/09/09 11:02:32;;;;;;;11.63;4.03;;;21.20;88.10;;;;;;6073946;23;20246;-94
2022/09/09 11:05:04;;;;;;;8.47;2.93;;;21.10;89.00;;;;;;6100684;23;20306;-94
2022/09/09 11:07:40;;;;;;;14.13;4.27;;;21.00;89.70;;;;;;6109269;23;20158;-93
2022/09/09 11:10:25;;;;;;;9.17;3.07;;;20.90;90.20;;;;;;6114653;23;20227;-94
2022/09/09 11:13:02;;;;;;;12.43;3.97;;;20.90;90.30;;;;;;6112592;23;20600;-95
2022/09/09 11:15:37;;;;;;;13.97;3.90;;;20.80;90.80;;;;;;6117121;23;20178;-94
2022/09/09 11:18:20;;;;;;;9.70;3.60;;;20.70;91.80;;;;;;6101306;23;20553;-94
2022/09/09 11:20:55;;;;;;;8.73;2.47;;;20.70;92.20;;;;;;6079717;23;20202;-95
2022/09/09 11:23:42;;;;;;;9.30;3.17;;;20.70;92.30;;;;;;6104565;23;20174;-94
2022/09/09 11:26:17;;;;;;;7.03;2.57;;;20.70;91.80;;;;;;6106942;23;20245;-95
2022/09/09 11:29:21;;;;;;;9.27;3.57;;;20.60;91.60;;;;;;6112115;23;20197;-94
2022/09/09 11:32:12;;;;;;;11.00;3.87;;;20.60;91.70;;;;;;6110932;23;20237;-95
2022/09/09 11:34:54;;;;;;;11.90;4.17;;;20.60;91.70;;;;;;6115924;23;20205;-94
2022/09/09 11:37:46;;;;;;;8.97;3.17;;;20.60;91.50;;;;;;6116991;23;20227;-95
2022/09/09 11:40:21;;;;;;;11.70;3.43;;;20.60;91.70;;;;;;6105713;23;20565;-94
2022/09/09 11:42:49;;;;;;;9.73;3.20;;;20.50;91.90;;;;;;6107032;23;20196;-95
2022/09/09 11:45:29;;;;;;;7.17;2.80;;;20.50;91.90;;;;;;6107333;23;20183;-96
2022/09/09 11:47:57;;;;;;;6.33;2.50;;;20.50;92.30;;;;;;6107279;23;20173;-96
2022/09/09 11:50:41;;;;;;;9.30;2.57;;;20.50;92.10;;;;;;6106586;23;20194;-94
2022/09/09 11:53:23;;;;;;;7.67;2.90;;;20.50;92.50;;;;;;6107555;23;20182;-94
2022/09/09 11:56:13;;;;;;;6.33;1.90;;;20.50;92.30;;;;;;6104581;23;20170;-95
2022/09/09 11:58:56;;;;;;;7.60;2.40;;;20.40;91.80;;;;;;6103528;23;20208;-94
2022/09/09 12:01:51;;;;;;;15.70;4.23;;;20.40;91.50;;;;;;6103269;23;20233;-95
2022/09/09 12:04:37;;;;;;;11.30;3.57;;;20.40;91.50;;;;;;6096294;23;20644;-90
2022/09/09 12:07:21;;;;;;;8.63;2.93;;;20.40;92.30;;;;;;6102653;23;20186;-94
2022/09/09 12:09:56;;;;;;;7.77;2.33;;;20.40;92.60;;;;;;6102959;23;20244;-94
2022/09/09 12:12:29;;;;;;;11.07;3.30;;;20.50;92.80;;;;;;6096660;23;20628;-95
2022/09/09 12:15:01;;;;;;;6.37;2.20;;;20.50;92.70;;;;;;6098257;23;20255;-96
2022/09/09 12:17:40;;;;;;;5.47;2.23;;;20.60;93.50;;;;;;6100214;23;20178;-95
2022/09/09 12:20:25;;;;;;;5.10;1.87;;;20.60;93.60;;;;;;6101042;23;20706;-95
2022/09/09 12:23:18;;;;;;;6.40;1.63;;;20.70;94.00;;;;;;6103169;23;20269;-95
2022/09/09 12:26:12;;;;;;;6.73;2.23;;;20.80;94.40;;;;;;6105273;23;20516;-93
2022/09/09 12:28:50;;;;;;;6.00;2.23;;;20.90;94.60;;;;;;6101404;23;20206;-95
2022/09/09 12:31:28;;;;;;;13.53;4.47;;;21.00;93.70;;;;;;6100993;23;20623;-95
2022/09/09 12:34:10;;;;;;;7.60;2.73;;;21.10;93.40;;;;;;6101681;23;20175;-94
2022/09/09 12:36:41;;;;;;;7.07;2.70;;;21.30;93.20;;;;;;6101086;23;20178;-96
2022/09/09 12:39:16;;;;;;;7.93;3.13;;;21.40;93.60;;;;;;6100165;23;20281;-95
2022/09/09 12:41:57;;;;;;;6.90;2.63;;;21.40;93.30;;;;;;6102331;23;20178;-95
2022/09/09 12:44:25;;;;;;;8.40;3.00;;;21.60;93.00;;;;;;6100455;23;20181;-96
2022/09/09 12:46:55;;;;;;;8.10;3.50;;;21.70;92.60;;;;;;6099714;23;20278;-95
2022/09/09 12:49:34;;;;;;;9.87;3.27;;;21.70;92.50;;;;;;6099325;23;20208;-94
2022/09/09 12:52:05;;;;;;;6.83;2.40;;;21.80;91.70;;;;;;6100630;23;20608;-96
2022/09/09 12:54:34;;;;;;;8.17;2.77;;;21.90;91.60;;;;;;6098371;23;20683;-95
2022/09/09 12:57:01;;;;;;;6.37;1.97;;;22.00;90.50;;;;;;6097727;23;20289;-95
2022/09/09 12:59:37;;;;;;;7.07;2.23;;;22.00;90.70;;;;;;6099351;23;20675;-95
2022/09/09 13:02:19;;;;;;;8.43;2.57;;;22.00;88.90;;;;;;6097552;23;20276;-95
2022/09/09 13:04:50;;;;;;;5.57;2.17;;;22.10;88.50;;;;;;6099589;23;20175;-94
2022/09/09 13:07:19;;;;;;;8.07;2.60;;;22.10;88.90;;;;;;6098960;23;20171;-96
2022/09/09 13:09:49;;;;;;;7.10;2.50;;;22.10;88.70;;;;;;6099460;23;20556;-96
2022/09/09 13:12:20;;;;;;;8.17;2.27;;;22.10;89.30;;;;;;6097783;23;20191;-95
2022/09/09 13:14:53;;;;;;;6.10;2.10;;;22.10;90.60;;;;;;6101786;23;20174;-96
2022/09/09 13:17:24;;;;;;;7.03;2.30;;;22.20;90.40;;;;;;6099243;23;20711;-95
2022/09/09 13:19:59;;;;;;;7.43;2.10;;;22.20;90.20;;;;;;6099713;23;20171;-95
2022/09/09 13:22:34;;;;;;;5.13;1.83;;;22.30;89.50;;;;;;6099368;23;20170;-96
2022/09/09 13:25:19;;;;;;;10.43;3.43;;;22.30;88.70;;;;;;6101164;23;20222;-95
2022/09/09 13:27:55;;;;;;;4.60;2.03;;;22.40;89.40;;;;;;6099102;23;20186;-96
2022/09/09 13:30:29;;;;;;;11.13;3.90;;;22.40;87.80;;;;;;6104883;23;20202;-94
2022/09/09 13:33:05;;;;;;;8.80;2.27;;;22.40;84.80;;;;;;6102998;23;20209;-92
2022/09/09 13:35:54;;;;;;;7.23;2.33;;;22.40;84.40;;;;;;6103825;23;20213;-96
2022/09/09 13:38:22;;;;;;;5.77;2.23;;;22.50;81.40;;;;;;6103771;23;20258;-96
2022/09/09 13:41:02;;;;;;;5.83;1.77;;;22.50;82.50;;;;;;6105237;23;20179;-93
2022/09/09 13:43:31;;;;;;;8.17;2.40;;;22.50;81.90;;;;;;6102419;23;20235;-94
2022/09/09 13:46:01;;;;;;;7.43;2.73;;;22.40;82.30;;;;;;6102925;23;20175;-94
2022/09/09 13:51:37;;;;;;;4.27;1.90;;;22.40;80.80;;;;;;6100807;23;20186;-95
2022/09/09 13:54:07;;;;;;;5.60;2.20;;;22.40;81.00;;;;;;6105139;23;20171;-96
2022/09/09 13:56:36;;;;;;;7.47;2.47;;;22.40;81.80;;;;;;6103366;23;20185;-94
2022/09/09 13:59:06;;;;;;;8.17;2.77;;;22.40;83.30;;;;;;6100131;23;20183;-93
2022/09/09 14:01:34;;;;;;;8.87;3.43;;;22.40;82.50;;;;;;6101085;23;20179;-96